sensor_id;sensor_type;location;lat;lon;timestamp;P1;durP1;ratioP1;P2;durP2;ratioP2
10094;SDS011;5086;50.830;7.102;2023-04-08T00:01:57;22.05;;;7.95;;
10094;SDS011;5086;50.830;7.102;2023-04-08T00:04:23;32.72;;;8.65;;
10094;SDS011;5086;50.830;7.102;2023-04-08T00:06:51;23.25;;;7.35;;
10094;SDS011;5086;50.830;7.102;2023-04-08T00:09:18;23.02;;;7.35;;
10094;SDS011;5086;50.830;7.102;2023-04-08T00:11:44;17.65;;;7.30;;
10094;SDS011;5086;50.830;7.102;2023-04-08T00:14:13;18.73;;;7.25;;
10094;SDS011;5086;50.830;7.102;2023-04-08T00:16:39;22.08;;;8.35;;
10094;SDS011;5086;50.830;7.102;2023-04-08T00:19:06;24.88;;;7.93;;
10094;SDS011;5086;50.830;7.102;2023-04-08T00:21:33;25.20;;;8.93;;
10094;SDS011;5086;50.830;7.102;2023-04-08T00:24:00;23.58;;;8.25;;
10094;SDS011;5086;50.830;7.102;2023-04-08T00:26:27;22.05;;;8.55;;
10094;SDS011;5086;50.830;7.102;2023-04-08T00:28:53;24.23;;;9.23;;
10094;SDS011;5086;50.830;7.102;2023-04-08T00:31:21;25.45;;;8.90;;
10094;SDS011;5086;50.830;7.102;2023-04-08T00:33:48;24.33;;;8.27;;
10094;SDS011;5086;50.830;7.102;2023-04-08T00:36:15;36.22;;;9.95;;
10094;SDS011;5086;50.830;7.102;2023-04-08T00:38:43;17.88;;;8.35;;
10094;SDS011;5086;50.830;7.102;2023-04-08T00:41:10;22.50;;;10.40;;
10094;SDS011;5086;50.830;7.102;2023-04-08T00:43:36;20.83;;;7.45;;
10094;SDS011;5086;50.830;7.102;2023-04-08T00:46:03;27.23;;;8.25;;
10094;SDS011;5086;50.830;7.102;2023-04-08T00:48:31;18.08;;;7.43;;
10094;SDS011;5086;50.830;7.102;2023-04-08T00:50:58;28.70;;;8.48;;
10094;SDS011;5086;50.830;7.102;2023-04-08T00:53:26;24.38;;;8.15;;
10094;SDS011;5086;50.830;7.102;2023-04-08T00:55:52;25.27;;;8.80;;
10094;SDS011;5086;50.830;7.102;2023-04-08T00:58:19;29.75;;;8.82;;
10094;SDS011;5086;50.830;7.102;2023-04-08T01:00:48;30.08;;;8.75;;
10094;SDS011;5086;50.830;7.102;2023-04-08T01:03:23;22.15;;;9.05;;
10094;SDS011;5086;50.830;7.102;2023-04-08T01:05:55;21.48;;;9.15;;
10094;SDS011;5086;50.830;7.102;2023-04-08T01:08:31;20.85;;;8.70;;
10094;SDS011;5086;50.830;7.102;2023-04-08T01:11:00;23.50;;;8.88;;
10094;SDS011;5086;50.830;7.102;2023-04-08T01:13:30;24.02;;;8.10;;
10094;SDS011;5086;50.830;7.102;2023-04-08T01:16:02;31.45;;;9.60;;
10094;SDS011;5086;50.830;7.102;2023-04-08T01:18:30;33.55;;;8.77;;
10094;SDS011;5086;50.830;7.102;2023-04-08T01:21:01;23.63;;;9.15;;
10094;SDS011;5086;50.830;7.102;2023-04-08T01:23:30;30.27;;;8.95;;
10094;SDS011;5086;50.830;7.102;2023-04-08T01:26:04;21.45;;;8.18;;
10094;SDS011;5086;50.830;7.102;2023-04-08T01:28:31;21.95;;;8.15;;
10094;SDS011;5086;50.830;7.102;2023-04-08T01:31:00;30.85;;;10.18;;
10094;SDS011;5086;50.830;7.102;2023-04-08T01:33:28;20.30;;;8.45;;
10094;SDS011;5086;50.830;7.102;2023-04-08T01:35:56;24.52;;;8.95;;
10094;SDS011;5086;50.830;7.102;2023-04-08T01:38:25;24.38;;;9.55;;
10094;SDS011;5086;50.830;7.102;2023-04-08T01:40:54;22.73;;;9.70;;
10094;SDS011;5086;50.830;7.102;2023-04-08T01:43:24;28.95;;;9.07;;
10094;SDS011;5086;50.830;7.102;2023-04-08T01:45:52;25.75;;;10.00;;
10094;SDS011;5086;50.830;7.102;2023-04-08T01:48:22;29.63;;;10.50;;
10094;SDS011;5086;50.830;7.102;2023-04-08T01:50:50;25.20;;;9.88;;
10094;SDS011;5086;50.830;7.102;2023-04-08T01:53:18;27.65;;;9.75;;
10094;SDS011;5086;50.830;7.102;2023-04-08T01:55:44;22.25;;;8.50;;
10094;SDS011;5086;50.830;7.102;2023-04-08T01:58:17;29.92;;;10.00;;
10094;SDS011;5086;50.830;7.102;2023-04-08T02:00:47;26.85;;;10.18;;
10094;SDS011;5086;50.830;7.102;2023-04-08T02:03:16;22.48;;;7.75;;
10094;SDS011;5086;50.830;7.102;2023-04-08T02:05:44;23.25;;;9.32;;
10094;SDS011;5086;50.830;7.102;2023-04-08T02:08:11;21.08;;;8.70;;
10094;SDS011;5086;50.830;7.102;2023-04-08T02:10:38;22.42;;;9.15;;
10094;SDS011;5086;50.830;7.102;2023-04-08T02:13:04;21.38;;;8.77;;
10094;SDS011;5086;50.830;7.102;2023-04-08T02:15:33;31.20;;;9.98;;
10094;SDS011;5086;50.830;7.102;2023-04-08T02:18:04;23.02;;;9.60;;
10094;SDS011;5086;50.830;7.102;2023-04-08T02:20:37;25.10;;;9.95;;
10094;SDS011;5086;50.830;7.102;2023-04-08T02:23:09;34.72;;;9.02;;
10094;SDS011;5086;50.830;7.102;2023-04-08T02:25:42;29.17;;;9.50;;
10094;SDS011;5086;50.830;7.102;2023-04-08T02:28:11;30.80;;;10.65;;
10094;SDS011;5086;50.830;7.102;2023-04-08T02:30:40;31.35;;;9.85;;
10094;SDS011;5086;50.830;7.102;2023-04-08T02:33:09;24.55;;;10.02;;
10094;SDS011;5086;50.830;7.102;2023-04-08T02:35:38;28.55;;;9.73;;
10094;SDS011;5086;50.830;7.102;2023-04-08T02:38:06;24.38;;;8.52;;
10094;SDS011;5086;50.830;7.102;2023-04-08T02:40:34;22.40;;;10.13;;
10094;SDS011;5086;50.830;7.102;2023-04-08T02:43:01;29.75;;;9.63;;
10094;SDS011;5086;50.830;7.102;2023-04-08T02:45:29;27.98;;;11.55;;
10094;SDS011;5086;50.830;7.102;2023-04-08T02:47:57;28.25;;;11.00;;
10094;SDS011;5086;50.830;7.102;2023-04-08T02:50:27;29.77;;;10.48;;
10094;SDS011;5086;50.830;7.102;2023-04-08T02:52:54;27.38;;;10.10;;
10094;SDS011;5086;50.830;7.102;2023-04-08T02:55:21;32.30;;;11.45;;
10094;SDS011;5086;50.830;7.102;2023-04-08T02:57:47;26.23;;;10.27;;
10094;SDS011;5086;50.830;7.102;2023-04-08T03:00:15;27.33;;;9.85;;
10094;SDS011;5086;50.830;7.102;2023-04-08T03:02:42;28.27;;;10.80;;
10094;SDS011;5086;50.830;7.102;2023-04-08T03:05:09;31.65;;;9.48;;
10094;SDS011;5086;50.830;7.102;2023-04-08T03:07:38;31.02;;;10.60;;
10094;SDS011;5086;50.830;7.102;2023-04-08T03:10:05;31.52;;;11.40;;
10094;SDS011;5086;50.830;7.102;2023-04-08T03:12:33;25.92;;;9.55;;
10094;SDS011;5086;50.830;7.102;2023-04-08T03:14:59;27.60;;;10.48;;
10094;SDS011;5086;50.830;7.102;2023-04-08T03:17:27;31.40;;;10.05;;
10094;SDS011;5086;50.830;7.102;2023-04-08T03:19:56;27.48;;;9.15;;
10094;SDS011;5086;50.830;7.102;2023-04-08T03:22:23;29.65;;;9.73;;
10094;SDS011;5086;50.830;7.102;2023-04-08T03:24:51;24.73;;;10.45;;
10094;SDS011;5086;50.830;7.102;2023-04-08T03:27:18;34.10;;;10.65;;
10094;SDS011;5086;50.830;7.102;2023-04-08T03:29:45;38.03;;;10.45;;
10094;SDS011;5086;50.830;7.102;2023-04-08T03:32:11;32.05;;;10.52;;
10094;SDS011;5086;50.830;7.102;2023-04-08T03:34:38;26.13;;;10.30;;
10094;SDS011;5086;50.830;7.102;2023-04-08T03:37:05;28.83;;;11.15;;
10094;SDS011;5086;50.830;7.102;2023-04-08T03:39:32;27.17;;;9.88;;
10094;SDS011;5086;50.830;7.102;2023-04-08T03:42:00;25.08;;;11.15;;
10094;SDS011;5086;50.830;7.102;2023-04-08T03:44:27;25.42;;;9.43;;
10094;SDS011;5086;50.830;7.102;2023-04-08T03:46:54;24.95;;;9.40;;
10094;SDS011;5086;50.830;7.102;2023-04-08T03:49:21;22.58;;;9.63;;
10094;SDS011;5086;50.830;7.102;2023-04-08T03:51:47;26.23;;;9.88;;
10094;SDS011;5086;50.830;7.102;2023-04-08T03:54:14;25.10;;;10.68;;
10094;SDS011;5086;50.830;7.102;2023-04-08T03:56:41;25.95;;;8.52;;
10094;SDS011;5086;50.830;7.102;2023-04-08T03:59:09;30.50;;;10.60;;
10094;SDS011;5086;50.830;7.102;2023-04-08T04:01:36;25.73;;;8.93;;
10094;SDS011;5086;50.830;7.102;2023-04-08T04:04:03;25.50;;;9.20;;
10094;SDS011;5086;50.830;7.102;2023-04-08T04:06:29;23.17;;;10.02;;
10094;SDS011;5086;50.830;7.102;2023-04-08T04:08:56;25.25;;;9.13;;
10094;SDS011;5086;50.830;7.102;2023-04-08T04:11:23;20.75;;;8.70;;
10094;SDS011;5086;50.830;7.102;2023-04-08T04:13:50;30.45;;;9.43;;
10094;SDS011;5086;50.830;7.102;2023-04-08T04:16:18;24.67;;;9.30;;
10094;SDS011;5086;50.830;7.102;2023-04-08T04:18:45;24.95;;;9.27;;
10094;SDS011;5086;50.830;7.102;2023-04-08T04:21:18;21.02;;;8.95;;
10094;SDS011;5086;50.830;7.102;2023-04-08T04:23:44;23.48;;;8.20;;
10094;SDS011;5086;50.830;7.102;2023-04-08T04:26:11;28.95;;;9.75;;
10094;SDS011;5086;50.830;7.102;2023-04-08T04:28:39;25.95;;;9.88;;
10094;SDS011;5086;50.830;7.102;2023-04-08T04:31:05;25.67;;;9.57;;
10094;SDS011;5086;50.830;7.102;2023-04-08T04:33:34;33.83;;;10.38;;
10094;SDS011;5086;50.830;7.102;2023-04-08T04:36:00;31.00;;;11.40;;
10094;SDS011;5086;50.830;7.102;2023-04-08T04:38:27;29.40;;;9.85;;
10094;SDS011;5086;50.830;7.102;2023-04-08T04:40:54;29.70;;;10.80;;
10094;SDS011;5086;50.830;7.102;2023-04-08T04:43:21;49.88;;;11.35;;
10094;SDS011;5086;50.830;7.102;2023-04-08T04:45:48;26.17;;;9.73;;
10094;SDS011;5086;50.830;7.102;2023-04-08T04:48:15;31.88;;;12.18;;
10094;SDS011;5086;50.830;7.102;2023-04-08T04:50:43;22.90;;;10.38;;
10094;SDS011;5086;50.830;7.102;2023-04-08T04:53:10;25.77;;;10.13;;
10094;SDS011;5086;50.830;7.102;2023-04-08T04:55:37;36.65;;;10.98;;
10094;SDS011;5086;50.830;7.102;2023-04-08T04:58:04;27.95;;;11.63;;
10094;SDS011;5086;50.830;7.102;2023-04-08T05:00:31;33.15;;;10.90;;
10094;SDS011;5086;50.830;7.102;2023-04-08T05:02:57;37.22;;;11.38;;
10094;SDS011;5086;50.830;7.102;2023-04-08T05:05:24;35.67;;;10.00;;
10094;SDS011;5086;50.830;7.102;2023-04-08T05:07:52;35.03;;;10.43;;
10094;SDS011;5086;50.830;7.102;2023-04-08T05:10:19;28.23;;;10.07;;
10094;SDS011;5086;50.830;7.102;2023-04-08T05:12:46;31.20;;;11.30;;
10094;SDS011;5086;50.830;7.102;2023-04-08T05:15:13;33.63;;;9.60;;
10094;SDS011;5086;50.830;7.102;2023-04-08T05:17:40;33.75;;;10.90;;
10094;SDS011;5086;50.830;7.102;2023-04-08T05:20:07;31.98;;;12.43;;
10094;SDS011;5086;50.830;7.102;2023-04-08T05:22:34;27.20;;;10.05;;
10094;SDS011;5086;50.830;7.102;2023-04-08T05:25:02;37.17;;;11.77;;
10094;SDS011;5086;50.830;7.102;2023-04-08T05:27:29;34.17;;;12.43;;
10094;SDS011;5086;50.830;7.102;2023-04-08T05:29:56;36.63;;;12.65;;
10094;SDS011;5086;50.830;7.102;2023-04-08T05:32:23;30.65;;;11.48;;
10094;SDS011;5086;50.830;7.102;2023-04-08T05:34:50;43.25;;;13.18;;
10094;SDS011;5086;50.830;7.102;2023-04-08T05:37:16;36.28;;;12.10;;
10094;SDS011;5086;50.830;7.102;2023-04-08T05:39:43;27.65;;;10.68;;
10094;SDS011;5086;50.830;7.102;2023-04-08T05:42:11;34.83;;;11.50;;
10094;SDS011;5086;50.830;7.102;2023-04-08T05:44:38;35.42;;;12.02;;
10094;SDS011;5086;50.830;7.102;2023-04-08T05:47:07;44.95;;;14.15;;
10094;SDS011;5086;50.830;7.102;2023-04-08T05:49:34;30.85;;;13.00;;
10094;SDS011;5086;50.830;7.102;2023-04-08T05:52:01;37.30;;;11.38;;
10094;SDS011;5086;50.830;7.102;2023-04-08T05:54:28;44.60;;;12.25;;
10094;SDS011;5086;50.830;7.102;2023-04-08T05:56:55;32.22;;;11.20;;
10094;SDS011;5086;50.830;7.102;2023-04-08T05:59:23;28.58;;;11.23;;
10094;SDS011;5086;50.830;7.102;2023-04-08T06:01:50;28.65;;;10.88;;
10094;SDS011;5086;50.830;7.102;2023-04-08T06:04:18;28.75;;;10.05;;
10094;SDS011;5086;50.830;7.102;2023-04-08T06:06:45;34.47;;;12.00;;
10094;SDS011;5086;50.830;7.102;2023-04-08T06:09:12;35.08;;;11.90;;
10094;SDS011;5086;50.830;7.102;2023-04-08T06:11:38;29.50;;;11.00;;
10094;SDS011;5086;50.830;7.102;2023-04-08T06:14:06;52.17;;;12.30;;
10094;SDS011;5086;50.830;7.102;2023-04-08T06:16:34;32.67;;;11.93;;
10094;SDS011;5086;50.830;7.102;2023-04-08T06:19:01;31.60;;;10.75;;
10094;SDS011;5086;50.830;7.102;2023-04-08T06:21:28;32.65;;;11.50;;
10094;SDS011;5086;50.830;7.102;2023-04-08T06:23:55;39.33;;;11.95;;
10094;SDS011;5086;50.830;7.102;2023-04-08T06:26:22;35.08;;;11.05;;
10094;SDS011;5086;50.830;7.102;2023-04-08T06:28:48;27.20;;;11.70;;
10094;SDS011;5086;50.830;7.102;2023-04-08T06:31:16;32.70;;;11.70;;
10094;SDS011;5086;50.830;7.102;2023-04-08T06:33:44;41.80;;;12.75;;
10094;SDS011;5086;50.830;7.102;2023-04-08T06:36:11;28.77;;;10.48;;
10094;SDS011;5086;50.830;7.102;2023-04-08T06:38:37;29.77;;;11.07;;
10094;SDS011;5086;50.830;7.102;2023-04-08T06:41:05;26.42;;;10.90;;
10094;SDS011;5086;50.830;7.102;2023-04-08T06:43:32;34.45;;;11.73;;
10094;SDS011;5086;50.830;7.102;2023-04-08T06:46:01;40.78;;;10.90;;
10094;SDS011;5086;50.830;7.102;2023-04-08T06:48:28;24.33;;;9.88;;
10094;SDS011;5086;50.830;7.102;2023-04-08T06:50:56;31.50;;;10.60;;
10094;SDS011;5086;50.830;7.102;2023-04-08T06:53:24;35.63;;;12.52;;
10094;SDS011;5086;50.830;7.102;2023-04-08T06:55:53;35.83;;;11.98;;
10094;SDS011;5086;50.830;7.102;2023-04-08T06:58:20;35.03;;;12.05;;
10094;SDS011;5086;50.830;7.102;2023-04-08T07:00:47;27.90;;;11.10;;
10094;SDS011;5086;50.830;7.102;2023-04-08T07:03:13;32.53;;;11.43;;
10094;SDS011;5086;50.830;7.102;2023-04-08T07:05:40;30.35;;;10.73;;
10094;SDS011;5086;50.830;7.102;2023-04-08T07:08:09;25.17;;;10.23;;
10094;SDS011;5086;50.830;7.102;2023-04-08T07:10:36;29.85;;;10.02;;
10094;SDS011;5086;50.830;7.102;2023-04-08T07:13:03;47.75;;;14.20;;
10094;SDS011;5086;50.830;7.102;2023-04-08T07:15:30;30.02;;;10.98;;
10094;SDS011;5086;50.830;7.102;2023-04-08T07:17:57;35.72;;;10.70;;
10094;SDS011;5086;50.830;7.102;2023-04-08T07:20:25;33.72;;;10.70;;
10094;SDS011;5086;50.830;7.102;2023-04-08T07:22:52;34.53;;;12.63;;
10094;SDS011;5086;50.830;7.102;2023-04-08T07:25:20;31.48;;;11.57;;
10094;SDS011;5086;50.830;7.102;2023-04-08T07:27:47;40.30;;;12.32;;
10094;SDS011;5086;50.830;7.102;2023-04-08T07:30:14;34.22;;;11.40;;
10094;SDS011;5086;50.830;7.102;2023-04-08T07:32:41;39.53;;;12.18;;
10094;SDS011;5086;50.830;7.102;2023-04-08T07:35:09;26.60;;;11.52;;
10094;SDS011;5086;50.830;7.102;2023-04-08T07:37:36;31.67;;;12.48;;
10094;SDS011;5086;50.830;7.102;2023-04-08T07:40:03;41.75;;;13.68;;
10094;SDS011;5086;50.830;7.102;2023-04-08T07:42:34;54.78;;;13.50;;
10094;SDS011;5086;50.830;7.102;2023-04-08T07:45:01;35.40;;;12.32;;
10094;SDS011;5086;50.830;7.102;2023-04-08T07:47:28;41.85;;;13.88;;
10094;SDS011;5086;50.830;7.102;2023-04-08T07:49:55;41.47;;;13.57;;
10094;SDS011;5086;50.830;7.102;2023-04-08T07:52:22;38.65;;;13.68;;
10094;SDS011;5086;50.830;7.102;2023-04-08T07:54:49;39.00;;;13.40;;
10094;SDS011;5086;50.830;7.102;2023-04-08T07:57:16;38.63;;;13.82;;
10094;SDS011;5086;50.830;7.102;2023-04-08T07:59:44;36.63;;;13.10;;
10094;SDS011;5086;50.830;7.102;2023-04-08T08:02:10;34.80;;;12.82;;
10094;SDS011;5086;50.830;7.102;2023-04-08T08:04:37;34.42;;;12.80;;
10094;SDS011;5086;50.830;7.102;2023-04-08T08:07:04;36.22;;;13.68;;
10094;SDS011;5086;50.830;7.102;2023-04-08T08:09:31;38.05;;;12.45;;
10094;SDS011;5086;50.830;7.102;2023-04-08T08:11:58;38.85;;;12.38;;
10094;SDS011;5086;50.830;7.102;2023-04-08T08:14:25;32.95;;;12.60;;
10094;SDS011;5086;50.830;7.102;2023-04-08T08:16:53;32.15;;;12.73;;
10094;SDS011;5086;50.830;7.102;2023-04-08T08:19:20;31.40;;;12.63;;
10094;SDS011;5086;50.830;7.102;2023-04-08T08:21:47;40.00;;;12.10;;
10094;SDS011;5086;50.830;7.102;2023-04-08T08:24:14;32.40;;;11.15;;
10094;SDS011;5086;50.830;7.102;2023-04-08T08:26:42;28.65;;;11.00;;
10094;SDS011;5086;50.830;7.102;2023-04-08T08:29:11;33.13;;;11.30;;
10094;SDS011;5086;50.830;7.102;2023-04-08T08:31:38;28.30;;;11.15;;
10094;SDS011;5086;50.830;7.102;2023-04-08T08:34:06;30.02;;;10.63;;
10094;SDS011;5086;50.830;7.102;2023-04-08T08:36:32;33.05;;;12.05;;
10094;SDS011;5086;50.830;7.102;2023-04-08T08:38:59;34.55;;;12.35;;
10094;SDS011;5086;50.830;7.102;2023-04-08T08:41:26;40.25;;;12.82;;
10094;SDS011;5086;50.830;7.102;2023-04-08T08:43:57;32.42;;;12.18;;
10094;SDS011;5086;50.830;7.102;2023-04-08T08:46:25;30.45;;;12.13;;
10094;SDS011;5086;50.830;7.102;2023-04-08T08:48:52;31.60;;;12.25;;
10094;SDS011;5086;50.830;7.102;2023-04-08T08:51:20;32.85;;;13.02;;
10094;SDS011;5086;50.830;7.102;2023-04-08T08:53:47;36.17;;;12.45;;
10094;SDS011;5086;50.830;7.102;2023-04-08T08:56:13;35.92;;;12.30;;
10094;SDS011;5086;50.830;7.102;2023-04-08T08:58:40;32.75;;;10.75;;
10094;SDS011;5086;50.830;7.102;2023-04-08T09:04:07;30.08;;;11.15;;
10094;SDS011;5086;50.830;7.102;2023-04-08T09:06:41;36.33;;;11.93;;
10094;SDS011;5086;50.830;7.102;2023-04-08T09:09:08;36.33;;;12.77;;
10094;SDS011;5086;50.830;7.102;2023-04-08T09:11:37;34.95;;;12.90;;
10094;SDS011;5086;50.830;7.102;2023-04-08T09:14:16;24.02;;;10.23;;
10094;SDS011;5086;50.830;7.102;2023-04-08T09:16:43;30.92;;;13.23;;
10094;SDS011;5086;50.830;7.102;2023-04-08T09:19:11;27.58;;;11.27;;
10094;SDS011;5086;50.830;7.102;2023-04-08T09:21:38;32.47;;;11.75;;
10094;SDS011;5086;50.830;7.102;2023-04-08T09:24:07;30.35;;;12.32;;
10094;SDS011;5086;50.830;7.102;2023-04-08T09:26:35;32.92;;;11.20;;
10094;SDS011;5086;50.830;7.102;2023-04-08T09:29:03;33.75;;;10.75;;
10094;SDS011;5086;50.830;7.102;2023-04-08T09:31:31;27.95;;;11.48;;
10094;SDS011;5086;50.830;7.102;2023-04-08T09:33:59;33.45;;;12.77;;
10094;SDS011;5086;50.830;7.102;2023-04-08T09:36:32;31.20;;;11.75;;
10094;SDS011;5086;50.830;7.102;2023-04-08T09:38:58;31.38;;;11.25;;
10094;SDS011;5086;50.830;7.102;2023-04-08T09:41:27;31.90;;;12.65;;
10094;SDS011;5086;50.830;7.102;2023-04-08T09:43:55;39.53;;;12.48;;
10094;SDS011;5086;50.830;7.102;2023-04-08T09:46:24;36.33;;;12.27;;
10094;SDS011;5086;50.830;7.102;2023-04-08T09:48:55;38.63;;;13.40;;
10094;SDS011;5086;50.830;7.102;2023-04-08T09:51:26;34.53;;;12.60;;
10094;SDS011;5086;50.830;7.102;2023-04-08T09:53:59;28.40;;;11.23;;
10094;SDS011;5086;50.830;7.102;2023-04-08T09:56:30;31.55;;;12.30;;
10094;SDS011;5086;50.830;7.102;2023-04-08T09:59:08;31.25;;;11.75;;
10094;SDS011;5086;50.830;7.102;2023-04-08T10:01:42;35.72;;;11.73;;
10094;SDS011;5086;50.830;7.102;2023-04-08T10:04:13;28.30;;;12.32;;
10094;SDS011;5086;50.830;7.102;2023-04-08T10:06:42;29.30;;;11.35;;
10094;SDS011;5086;50.830;7.102;2023-04-08T10:09:08;31.83;;;11.75;;
10094;SDS011;5086;50.830;7.102;2023-04-08T10:11:38;31.75;;;11.93;;
10094;SDS011;5086;50.830;7.102;2023-04-08T10:14:05;41.25;;;12.88;;
10094;SDS011;5086;50.830;7.102;2023-04-08T10:16:34;32.03;;;11.38;;
10094;SDS011;5086;50.830;7.102;2023-04-08T10:19:01;33.40;;;13.32;;
10094;SDS011;5086;50.830;7.102;2023-04-08T10:21:37;40.17;;;14.38;;
10094;SDS011;5086;50.830;7.102;2023-04-08T10:24:07;37.85;;;12.80;;
10094;SDS011;5086;50.830;7.102;2023-04-08T10:26:40;36.92;;;13.63;;
10094;SDS011;5086;50.830;7.102;2023-04-08T10:29:30;40.13;;;12.75;;
10094;SDS011;5086;50.830;7.102;2023-04-08T10:32:00;43.50;;;13.95;;
10094;SDS011;5086;50.830;7.102;2023-04-08T10:34:27;41.67;;;15.55;;
10094;SDS011;5086;50.830;7.102;2023-04-08T10:36:55;42.33;;;13.60;;
10094;SDS011;5086;50.830;7.102;2023-04-08T10:39:23;43.72;;;13.75;;
10094;SDS011;5086;50.830;7.102;2023-04-08T10:41:53;43.08;;;15.35;;
10094;SDS011;5086;50.830;7.102;2023-04-08T10:44:20;47.55;;;17.48;;
10094;SDS011;5086;50.830;7.102;2023-04-08T10:46:48;38.63;;;14.77;;
10094;SDS011;5086;50.830;7.102;2023-04-08T10:49:16;44.22;;;16.83;;
10094;SDS011;5086;50.830;7.102;2023-04-08T10:51:43;45.92;;;15.70;;
10094;SDS011;5086;50.830;7.102;2023-04-08T10:54:12;45.65;;;14.95;;
10094;SDS011;5086;50.830;7.102;2023-04-08T10:56:43;40.92;;;14.40;;
10094;SDS011;5086;50.830;7.102;2023-04-08T10:59:13;49.00;;;15.13;;
10094;SDS011;5086;50.830;7.102;2023-04-08T11:01:44;48.55;;;17.73;;
10094;SDS011;5086;50.830;7.102;2023-04-08T11:04:12;44.70;;;16.63;;
10094;SDS011;5086;50.830;7.102;2023-04-08T11:06:40;49.22;;;15.45;;
10094;SDS011;5086;50.830;7.102;2023-04-08T11:09:08;47.88;;;17.42;;
10094;SDS011;5086;50.830;7.102;2023-04-08T11:11:35;44.75;;;15.55;;
10094;SDS011;5086;50.830;7.102;2023-04-08T11:14:02;41.67;;;14.68;;
10094;SDS011;5086;50.830;7.102;2023-04-08T11:16:31;53.05;;;17.77;;
10094;SDS011;5086;50.830;7.102;2023-04-08T11:19:01;46.17;;;15.02;;
10094;SDS011;5086;50.830;7.102;2023-04-08T11:21:29;45.80;;;16.13;;
10094;SDS011;5086;50.830;7.102;2023-04-08T11:23:56;49.53;;;16.80;;
10094;SDS011;5086;50.830;7.102;2023-04-08T11:26:23;49.90;;;15.20;;
10094;SDS011;5086;50.830;7.102;2023-04-08T11:28:51;47.33;;;16.70;;
10094;SDS011;5086;50.830;7.102;2023-04-08T11:31:18;47.75;;;16.42;;
10094;SDS011;5086;50.830;7.102;2023-04-08T11:33:48;49.22;;;15.38;;
10094;SDS011;5086;50.830;7.102;2023-04-08T11:36:17;43.33;;;14.15;;
10094;SDS011;5086;50.830;7.102;2023-04-08T11:38:45;41.75;;;15.35;;
10094;SDS011;5086;50.830;7.102;2023-04-08T11:41:13;36.20;;;13.25;;
10094;SDS011;5086;50.830;7.102;2023-04-08T11:43:49;31.50;;;13.10;;
10094;SDS011;5086;50.830;7.102;2023-04-08T11:46:17;37.55;;;11.70;;
10094;SDS011;5086;50.830;7.102;2023-04-08T11:48:56;46.15;;;13.98;;
10094;SDS011;5086;50.830;7.102;2023-04-08T11:51:24;44.88;;;14.13;;
10094;SDS011;5086;50.830;7.102;2023-04-08T11:53:52;32.83;;;11.30;;
10094;SDS011;5086;50.830;7.102;2023-04-08T11:56:19;31.63;;;12.75;;
10094;SDS011;5086;50.830;7.102;2023-04-08T11:58:47;29.55;;;11.40;;
10094;SDS011;5086;50.830;7.102;2023-04-08T12:01:14;25.30;;;11.15;;
10094;SDS011;5086;50.830;7.102;2023-04-08T12:03:52;26.33;;;11.30;;
10094;SDS011;5086;50.830;7.102;2023-04-08T12:06:22;19.45;;;8.60;;
10094;SDS011;5086;50.830;7.102;2023-04-08T12:08:49;20.23;;;8.18;;
10094;SDS011;5086;50.830;7.102;2023-04-08T12:11:15;24.30;;;9.80;;
10094;SDS011;5086;50.830;7.102;2023-04-08T12:13:42;26.65;;;11.07;;
10094;SDS011;5086;50.830;7.102;2023-04-08T12:16:09;30.98;;;11.30;;
10094;SDS011;5086;50.830;7.102;2023-04-08T12:18:36;32.90;;;11.00;;
10094;SDS011;5086;50.830;7.102;2023-04-08T12:21:03;22.65;;;9.70;;
10094;SDS011;5086;50.830;7.102;2023-04-08T12:23:31;21.33;;;9.75;;
10094;SDS011;5086;50.830;7.102;2023-04-08T12:25:58;23.98;;;10.20;;
10094;SDS011;5086;50.830;7.102;2023-04-08T12:28:24;28.35;;;10.90;;
10094;SDS011;5086;50.830;7.102;2023-04-08T12:30:51;26.15;;;11.30;;
10094;SDS011;5086;50.830;7.102;2023-04-08T12:33:18;27.58;;;11.55;;
10094;SDS011;5086;50.830;7.102;2023-04-08T12:35:45;23.33;;;11.90;;
10094;SDS011;5086;50.830;7.102;2023-04-08T12:38:12;29.45;;;10.35;;
10094;SDS011;5086;50.830;7.102;2023-04-08T12:40:40;28.80;;;10.68;;
10094;SDS011;5086;50.830;7.102;2023-04-08T12:43:07;27.00;;;10.85;;
10094;SDS011;5086;50.830;7.102;2023-04-08T12:45:34;33.42;;;11.80;;
10094;SDS011;5086;50.830;7.102;2023-04-08T12:48:02;22.05;;;9.93;;
10094;SDS011;5086;50.830;7.102;2023-04-08T12:50:29;30.35;;;11.75;;
10094;SDS011;5086;50.830;7.102;2023-04-08T12:52:56;23.05;;;10.15;;
10094;SDS011;5086;50.830;7.102;2023-04-08T12:55:23;22.35;;;10.50;;
10094;SDS011;5086;50.830;7.102;2023-04-08T12:57:51;25.42;;;10.52;;
10094;SDS011;5086;50.830;7.102;2023-04-08T13:00:18;12.60;;;6.88;;
10094;SDS011;5086;50.830;7.102;2023-04-08T13:02:45;14.50;;;6.65;;
10094;SDS011;5086;50.830;7.102;2023-04-08T13:05:12;15.35;;;6.90;;
10094;SDS011;5086;50.830;7.102;2023-04-08T13:07:39;15.63;;;6.18;;
10094;SDS011;5086;50.830;7.102;2023-04-08T13:10:06;15.07;;;6.72;;
10094;SDS011;5086;50.830;7.102;2023-04-08T13:12:34;18.92;;;6.75;;
10094;SDS011;5086;50.830;7.102;2023-04-08T13:15:06;15.27;;;6.65;;
10094;SDS011;5086;50.830;7.102;2023-04-08T13:17:34;16.08;;;7.75;;
10094;SDS011;5086;50.830;7.102;2023-04-08T13:20:01;17.75;;;8.02;;
10094;SDS011;5086;50.830;7.102;2023-04-08T13:22:29;18.73;;;7.07;;
10094;SDS011;5086;50.830;7.102;2023-04-08T13:24:57;16.70;;;7.60;;
10094;SDS011;5086;50.830;7.102;2023-04-08T13:27:25;17.20;;;8.35;;
10094;SDS011;5086;50.830;7.102;2023-04-08T13:29:52;16.95;;;8.02;;
10094;SDS011;5086;50.830;7.102;2023-04-08T13:32:21;22.52;;;9.20;;
10094;SDS011;5086;50.830;7.102;2023-04-08T13:34:48;18.95;;;8.40;;
10094;SDS011;5086;50.830;7.102;2023-04-08T13:37:15;16.17;;;8.40;;
10094;SDS011;5086;50.830;7.102;2023-04-08T13:39:42;17.67;;;7.53;;
10094;SDS011;5086;50.830;7.102;2023-04-08T13:42:09;17.88;;;7.78;;
10094;SDS011;5086;50.830;7.102;2023-04-08T13:44:35;16.30;;;7.18;;
10094;SDS011;5086;50.830;7.102;2023-04-08T13:47:03;15.43;;;7.10;;
10094;SDS011;5086;50.830;7.102;2023-04-08T13:49:31;13.45;;;7.10;;
10094;SDS011;5086;50.830;7.102;2023-04-08T13:51:58;14.70;;;7.10;;
10094;SDS011;5086;50.830;7.102;2023-04-08T13:54:25;20.88;;;8.27;;
10094;SDS011;5086;50.830;7.102;2023-04-08T13:56:52;16.05;;;7.72;;
10094;SDS011;5086;50.830;7.102;2023-04-08T13:59:19;17.85;;;7.55;;
10094;SDS011;5086;50.830;7.102;2023-04-08T14:01:46;17.88;;;8.27;;
10094;SDS011;5086;50.830;7.102;2023-04-08T14:04:17;18.42;;;8.05;;
10094;SDS011;5086;50.830;7.102;2023-04-08T14:06:45;17.77;;;7.50;;
10094;SDS011;5086;50.830;7.102;2023-04-08T14:09:14;22.27;;;10.00;;
10094;SDS011;5086;50.830;7.102;2023-04-08T14:11:41;18.02;;;8.10;;
10094;SDS011;5086;50.830;7.102;2023-04-08T14:14:08;16.73;;;8.38;;
10094;SDS011;5086;50.830;7.102;2023-04-08T14:16:35;17.52;;;8.18;;
10094;SDS011;5086;50.830;7.102;2023-04-08T14:19:02;18.65;;;7.97;;
10094;SDS011;5086;50.830;7.102;2023-04-08T14:21:29;20.75;;;8.88;;
10094;SDS011;5086;50.830;7.102;2023-04-08T14:23:58;19.02;;;9.18;;
10094;SDS011;5086;50.830;7.102;2023-04-08T14:26:25;20.70;;;9.05;;
10094;SDS011;5086;50.830;7.102;2023-04-08T14:28:52;18.48;;;7.82;;
10094;SDS011;5086;50.830;7.102;2023-04-08T14:31:19;19.13;;;8.40;;
10094;SDS011;5086;50.830;7.102;2023-04-08T14:33:46;17.08;;;7.13;;
10094;SDS011;5086;50.830;7.102;2023-04-08T14:36:12;20.92;;;7.85;;
10094;SDS011;5086;50.830;7.102;2023-04-08T14:38:39;12.50;;;6.35;;
10094;SDS011;5086;50.830;7.102;2023-04-08T14:41:07;13.75;;;6.50;;
10094;SDS011;5086;50.830;7.102;2023-04-08T14:43:34;16.95;;;6.53;;
10094;SDS011;5086;50.830;7.102;2023-04-08T14:46:01;13.68;;;6.25;;